createdAt,value
2022-08-11T00:00:43.344Z,21.85
2022-08-11T00:03:12.903Z,21.81
2022-08-11T00:05:54.660Z,21.65
2022-08-11T00:08:26.500Z,21.47
2022-08-11T00:11:02.757Z,21.40
2022-08-11T00:13:38.325Z,21.32
2022-08-11T00:16:12.718Z,21.38
2022-08-11T00:18:42.648Z,21.45
2022-08-11T00:21:10.717Z,21.27
2022-08-11T00:23:59.943Z,21.28
2022-08-11T00:26:28.668Z,21.31
2022-08-11T00:28:55.742Z,21.50
2022-08-11T00:31:24.538Z,21.34
2022-08-11T00:33:52.175Z,21.24
2022-08-11T00:36:25.321Z,21.13
2022-08-11T00:38:54.397Z,21.17
2022-08-11T00:41:34.365Z,21.19
2022-08-11T00:44:17.591Z,21.06
2022-08-11T00:46:59.363Z,21.03
2022-08-11T00:49:56.930Z,21.16
2022-08-11T00:52:36.677Z,21.04
2022-08-11T00:55:40.916Z,21.09
2022-08-11T00:58:32.626Z,20.80
2022-08-11T01:01:16.730Z,20.92
2022-08-11T01:04:32.455Z,20.68
2022-08-11T01:08:02.875Z,20.77
2022-08-11T01:10:45.175Z,20.63
2022-08-11T01:13:40.908Z,20.65
2022-08-11T01:16:50.046Z,20.55
2022-08-11T01:20:39.667Z,20.49
2022-08-11T01:22:58.694Z,20.41
2022-08-11T01:25:56.800Z,20.31
2022-08-11T01:28:57.318Z,20.35
2022-08-11T01:31:32.499Z,20.46
2022-08-11T01:34:11.153Z,20.31
2022-08-11T01:37:08.745Z,20.34
2022-08-11T01:39:47.480Z,20.26
2022-08-11T01:43:10.188Z,20.13
2022-08-11T01:45:55.225Z,20.08
2022-08-11T01:48:49.062Z,20.04
2022-08-11T01:51:24.958Z,19.98
2022-08-11T01:53:59.712Z,20.00
2022-08-11T01:56:42.875Z,20.10
2022-08-11T01:59:13.948Z,20.01
2022-08-11T02:01:52.334Z,20.14
2022-08-11T02:04:35.518Z,19.94
2022-08-11T02:07:11.002Z,19.81
2022-08-11T02:09:59.896Z,19.77
2022-08-11T02:12:52.152Z,19.84
2022-08-11T02:15:34.379Z,19.78
2022-08-11T02:19:12.030Z,19.78
2022-08-11T02:22:09.128Z,19.76
2022-08-11T02:24:49.386Z,19.67
2022-08-11T02:27:24.039Z,19.73
2022-08-11T02:30:07.236Z,19.56
2022-08-11T02:33:23.760Z,19.67
2022-08-11T02:36:22.122Z,19.47
2022-08-11T02:38:59.358Z,19.57
2022-08-11T02:42:35.287Z,19.47
2022-08-11T02:45:14.343Z,19.50
2022-08-11T02:48:14.992Z,19.50
2022-08-11T02:51:09.616Z,19.31
2022-08-11T02:54:03.150Z,19.28
2022-08-11T02:56:35.444Z,19.34
2022-08-11T02:59:30.592Z,19.18
2022-08-11T03:02:24.714Z,19.05
2022-08-11T03:05:11.912Z,19.02
2022-08-11T03:08:01.224Z,18.99
2022-08-11T03:11:15.964Z,19.08
2022-08-11T03:14:10.526Z,18.98
2022-08-11T03:16:46.424Z,18.98
2022-08-11T03:19:30.293Z,18.81
2022-08-11T03:22:08.459Z,18.81
2022-08-11T03:24:48.311Z,18.73
2022-08-11T03:27:52.393Z,18.64
2022-08-11T03:30:54.260Z,18.53
2022-08-11T03:33:48.259Z,18.58
2022-08-11T03:37:15.481Z,18.61
2022-08-11T03:39:55.551Z,18.54
2022-08-11T03:42:58.580Z,18.50
2022-08-11T03:45:37.425Z,18.57
2022-08-11T03:48:19.744Z,18.64
2022-08-11T03:51:01.589Z,18.54
2022-08-11T03:54:05.611Z,18.46
2022-08-11T03:57:19.921Z,18.41
2022-08-11T04:00:15.857Z,18.34
2022-08-11T04:03:13.517Z,18.36
2022-08-11T04:05:46.055Z,18.29
2022-08-11T04:08:21.827Z,18.27
2022-08-11T04:11:03.207Z,18.23
2022-08-11T04:14:24.893Z,18.23
2022-08-11T04:17:38.073Z,18.33
2022-08-11T04:20:32.250Z,18.40
2022-08-11T04:24:36.492Z,18.37
2022-08-11T04:26:39.007Z,18.43
2022-08-11T04:29:36.238Z,18.30
2022-08-11T04:32:47.770Z,18.32
2022-08-11T04:35:48.573Z,18.30
2022-08-11T04:38:25.869Z,18.26
2022-08-11T04:41:14.333Z,18.26
2022-08-11T04:44:14.541Z,18.29
2022-08-11T04:46:50.941Z,18.27
2022-08-11T04:50:16.288Z,18.44
2022-08-11T04:53:26.821Z,18.57
2022-08-11T04:56:26.750Z,18.51
2022-08-11T04:59:38.806Z,18.74
2022-08-11T05:02:21.088Z,18.80
2022-08-11T05:05:17.742Z,18.78
2022-08-11T05:08:11.042Z,19.06
2022-08-11T05:11:08.379Z,19.08
2022-08-11T05:14:05.400Z,19.19
2022-08-11T05:17:00.306Z,19.38
2022-08-11T05:19:45.772Z,19.20
2022-08-11T05:22:32.614Z,19.28
2022-08-11T05:26:43.909Z,19.49
2022-08-11T05:28:50.760Z,19.49
2022-08-11T05:31:39.840Z,19.49
2022-08-11T05:34:41.238Z,19.55
2022-08-11T05:37:26.213Z,19.59
2022-08-11T05:40:17.890Z,19.78
2022-08-11T05:43:08.919Z,19.71
2022-08-11T05:46:02.772Z,19.83
2022-08-11T05:48:53.210Z,19.87
2022-08-11T05:51:39.899Z,19.88
2022-08-11T05:54:40.998Z,19.97
2022-08-11T05:57:07.997Z,20.08
2022-08-11T05:59:34.629Z,20.13
2022-08-11T06:02:07.441Z,20.22
2022-08-11T06:04:34.608Z,20.34
2022-08-11T06:07:09.274Z,20.48
2022-08-11T06:09:37.223Z,20.44
2022-08-11T06:12:32.219Z,20.49
2022-08-11T06:15:05.774Z,20.63
2022-08-11T06:17:38.464Z,20.68
2022-08-11T06:20:12.425Z,20.87
2022-08-11T06:22:45.495Z,20.99
2022-08-11T06:25:15.257Z,21.00
2022-08-11T06:27:45.627Z,21.21
2022-08-11T06:32:37.036Z,21.34
2022-08-11T06:35:09.901Z,21.32
2022-08-11T06:38:10.645Z,21.40
2022-08-11T06:41:19.687Z,21.45
2022-08-11T06:44:04.635Z,21.62
2022-08-11T06:46:37.128Z,21.83
2022-08-11T06:49:04.170Z,21.90
2022-08-11T06:51:35.714Z,21.99
2022-08-11T06:54:04.575Z,22.09
2022-08-11T06:57:34.208Z,22.20
2022-08-11T07:00:06.567Z,22.30
2022-08-11T07:02:52.027Z,22.51
2022-08-11T07:05:44.382Z,22.71
2022-08-11T07:08:47.910Z,22.83
2022-08-11T07:11:45.141Z,22.95
2022-08-11T07:14:38.207Z,23.08
2022-08-11T07:17:08.683Z,23.21
2022-08-11T07:19:56.866Z,23.38
2022-08-11T07:22:45.085Z,23.43
2022-08-11T07:25:33.683Z,23.59
2022-08-11T07:28:27.857Z,23.70
2022-08-11T07:31:03.454Z,23.77
2022-08-11T07:34:06.462Z,23.97
2022-08-11T07:36:40.783Z,24.18
2022-08-11T07:39:15.577Z,24.34
2022-08-11T07:41:43.046Z,24.55
2022-08-11T07:44:11.489Z,24.51
2022-08-11T07:47:07.556Z,24.65
2022-08-11T07:49:57.267Z,24.53
2022-08-11T07:52:32.658Z,24.79
2022-08-11T07:55:11.860Z,25.10
2022-08-11T07:58:15.905Z,25.39
2022-08-11T08:01:10.704Z,26.70
2022-08-11T08:04:08.390Z,27.73
2022-08-11T08:06:56.339Z,28.91
2022-08-11T08:09:43.120Z,27.48
2022-08-11T08:12:28.453Z,27.79
2022-08-11T08:15:14.850Z,29.22
2022-08-11T08:18:09.001Z,28.37
2022-08-11T08:20:40.302Z,27.85
2022-08-11T08:23:08.290Z,27.89
2022-08-11T08:25:41.459Z,28.08
2022-08-11T08:28:14.093Z,28.30
2022-08-11T08:30:56.119Z,28.27
2022-08-11T08:33:28.213Z,28.60
2022-08-11T08:36:11.738Z,28.65
2022-08-11T08:38:42.627Z,29.12
2022-08-11T08:41:09.773Z,28.65
2022-08-11T08:43:47.600Z,28.52
2022-08-11T08:46:19.314Z,30.34
2022-08-11T08:48:48.058Z,30.63
2022-08-11T08:52:01.406Z,31.57
2022-08-11T08:54:23.246Z,31.44
2022-08-11T08:56:55.003Z,31.95
2022-08-11T08:59:24.116Z,29.94
2022-08-11T09:01:57.513Z,31.50
2022-08-11T09:04:25.822Z,30.94
2022-08-11T09:06:53.803Z,29.81
2022-08-11T09:09:21.826Z,29.28
2022-08-11T09:11:55.492Z,30.35
2022-08-11T09:14:53.581Z,31.14
2022-08-11T09:17:21.432Z,31.98
2022-08-11T09:19:56.520Z,32.06
2022-08-11T09:22:45.229Z,32.63
2022-08-11T09:25:31.162Z,32.91
2022-08-11T09:27:58.710Z,31.21
2022-08-11T09:30:27.635Z,32.05
2022-08-11T09:32:57.847Z,32.66
2022-08-11T09:35:27.993Z,33.86
2022-08-11T09:38:17.344Z,30.73
2022-08-11T09:40:47.140Z,30.18
2022-08-11T09:43:42.695Z,30.78
2022-08-11T09:46:10.548Z,31.75
2022-08-11T09:48:45.826Z,31.47
2022-08-11T09:51:14.017Z,32.32
2022-08-11T09:53:47.251Z,33.41
2022-08-11T09:56:48.840Z,33.48
2022-08-11T09:59:20.589Z,32.40
2022-08-11T10:01:50.657Z,34.16
2022-08-11T10:04:21.560Z,35.17
2022-08-11T10:07:04.382Z,34.70
2022-08-11T10:09:42.089Z,35.28
2022-08-11T10:12:12.075Z,34.93
2022-08-11T10:15:03.610Z,34.46
2022-08-11T10:17:34.028Z,34.70
2022-08-11T10:20:05.941Z,34.33
2022-08-11T10:22:53.326Z,34.33
2022-08-11T10:25:40.246Z,35.18
2022-08-11T10:28:28.747Z,34.29
2022-08-11T10:31:15.533Z,32.28
2022-08-11T10:34:00.744Z,33.75
2022-08-11T10:36:31.124Z,34.00
2022-08-11T10:38:59.350Z,34.80
2022-08-11T10:42:06.070Z,34.93
2022-08-11T10:44:38.710Z,35.64
2022-08-11T10:47:25.110Z,36.74
2022-08-11T10:50:12.027Z,34.56
2022-08-11T10:52:58.728Z,32.37
2022-08-11T10:55:45.356Z,34.87
2022-08-11T10:58:31.376Z,35.15
2022-08-11T11:01:00.544Z,35.41
2022-08-11T11:03:30.403Z,36.48
2022-08-11T11:06:28.531Z,36.32
2022-08-11T11:09:04.448Z,36.30
2022-08-11T11:11:56.086Z,36.50
2022-08-11T11:14:49.809Z,36.58
2022-08-11T11:17:46.333Z,35.71
2022-08-11T11:20:35.900Z,37.19
2022-08-11T11:23:26.118Z,37.41
2022-08-11T11:26:07.047Z,36.98
2022-08-11T11:28:51.847Z,35.98
2022-08-11T11:31:50.335Z,36.47
2022-08-11T11:35:21.382Z,35.99
2022-08-11T11:38:03.546Z,36.64
2022-08-11T11:40:33.520Z,36.58
2022-08-11T11:43:01.189Z,36.66
2022-08-11T11:45:28.305Z,38.27
2022-08-11T11:47:59.012Z,37.42
2022-08-11T11:50:29.339Z,34.97
2022-08-11T11:53:01.423Z,35.93
2022-08-11T11:55:29.520Z,35.82
2022-08-11T11:58:18.788Z,36.10
2022-08-11T12:01:05.987Z,36.19
2022-08-11T12:03:34.406Z,37.53
2022-08-11T12:06:02.922Z,35.45
2022-08-11T12:08:30.119Z,34.88
2022-08-11T12:11:25.240Z,34.87
2022-08-11T12:13:53.641Z,36.63
2022-08-11T12:16:33.023Z,35.95
2022-08-11T12:19:06.064Z,36.05
2022-08-11T12:21:35.163Z,34.61
2022-08-11T12:24:21.160Z,35.57
2022-08-11T12:27:15.290Z,36.64
2022-08-11T12:29:35.939Z,35.73
2022-08-11T12:32:08.377Z,37.43
2022-08-11T12:34:35.469Z,34.95
2022-08-11T12:37:05.773Z,34.82
2022-08-11T12:40:16.198Z,36.35
2022-08-11T12:43:04.019Z,36.67
2022-08-11T12:45:38.329Z,37.21
2022-08-11T12:49:00.391Z,36.98
2022-08-11T12:52:08.549Z,37.10
2022-08-11T12:54:41.230Z,37.43
2022-08-11T12:57:36.882Z,37.82
2022-08-11T13:00:25.596Z,38.47
2022-08-11T13:03:11.932Z,36.66
2022-08-11T13:05:40.203Z,37.19
2022-08-11T13:08:15.242Z,38.38
2022-08-11T13:11:02.070Z,38.10
2022-08-11T13:13:54.541Z,37.26
2022-08-11T13:16:17.744Z,37.73
2022-08-11T13:18:44.741Z,37.69
2022-08-11T13:21:20.105Z,38.24
2022-08-11T13:24:00.792Z,37.63
2022-08-11T13:26:47.137Z,38.24
2022-08-11T13:29:27.779Z,38.75
2022-08-11T13:31:58.350Z,37.59
2022-08-11T13:34:26.961Z,37.63
2022-08-11T13:36:57.066Z,36.54
2022-08-11T13:39:26.630Z,37.24
2022-08-11T13:41:59.302Z,37.14
2022-08-11T13:44:28.409Z,37.56
2022-08-11T13:47:02.517Z,37.85
2022-08-11T13:49:31.341Z,38.06
2022-08-11T13:51:59.086Z,37.49
2022-08-11T13:54:28.114Z,37.52
2022-08-11T13:57:00.355Z,37.79
2022-08-11T13:59:29.937Z,38.82
2022-08-11T14:02:28.101Z,38.91
2022-08-11T14:05:05.565Z,38.82
2022-08-11T14:07:46.276Z,36.70
2022-08-11T14:10:14.742Z,37.17
2022-08-11T14:13:09.386Z,37.17
2022-08-11T14:15:36.703Z,37.75
2022-08-11T14:18:30.224Z,37.80
2022-08-11T14:21:18.788Z,38.45
2022-08-11T14:23:50.702Z,38.40
2022-08-11T14:26:31.247Z,37.63
2022-08-11T14:29:02.824Z,37.07
2022-08-11T14:31:32.058Z,37.32
2022-08-11T14:34:02.526Z,37.17
2022-08-11T14:36:33.974Z,38.75
2022-08-11T14:39:12.948Z,37.76
2022-08-11T14:42:11.563Z,38.00
2022-08-11T14:45:01.134Z,37.43
2022-08-11T14:47:29.612Z,37.13
2022-08-11T14:50:10.253Z,37.18
2022-08-11T14:52:49.570Z,37.26
2022-08-11T14:55:35.772Z,36.97
2022-08-11T14:58:04.014Z,37.13
2022-08-11T15:00:32.316Z,37.51
2022-08-11T15:03:12.904Z,37.10
2022-08-11T15:05:57.335Z,37.32
2022-08-11T15:08:49.918Z,37.24
2022-08-11T15:11:37.813Z,37.43
2022-08-11T15:14:07.439Z,36.88
2022-08-11T15:16:54.767Z,37.96
2022-08-11T15:19:21.673Z,38.21
2022-08-11T15:22:07.877Z,37.99
2022-08-11T15:24:36.459Z,37.46
2022-08-11T15:27:30.165Z,36.39
2022-08-11T15:30:33.487Z,36.35
2022-08-11T15:33:29.639Z,35.58
2022-08-11T15:36:16.447Z,35.93
2022-08-11T15:38:49.318Z,36.27
2022-08-11T15:41:44.440Z,36.13
2022-08-11T15:45:01.071Z,36.87
2022-08-11T15:47:25.805Z,37.22
2022-08-11T15:50:11.425Z,37.66
2022-08-11T15:52:47.764Z,37.65
2022-08-11T15:55:15.371Z,37.52
2022-08-11T15:58:02.116Z,37.18
2022-08-11T16:00:47.437Z,36.40
2022-08-11T16:04:05.535Z,35.98
2022-08-11T16:06:22.493Z,35.96
2022-08-11T16:08:52.659Z,36.16
2022-08-11T16:11:21.332Z,36.84
2022-08-11T16:14:08.172Z,37.05
2022-08-11T16:16:36.479Z,36.85
2022-08-11T16:19:04.723Z,36.10
2022-08-11T16:21:36.154Z,35.69
2022-08-11T16:25:58.183Z,35.37
2022-08-11T16:27:08.760Z,36.10
2022-08-11T16:29:43.642Z,35.81
2022-08-11T16:32:18.674Z,35.64
2022-08-11T16:35:07.577Z,35.15
2022-08-11T16:37:55.120Z,34.70
2022-08-11T16:40:23.093Z,35.20
2022-08-11T16:43:11.746Z,35.38
2022-08-11T16:45:59.545Z,35.04
2022-08-11T16:48:36.986Z,34.98
2022-08-11T16:51:10.317Z,35.14
2022-08-11T16:54:04.008Z,35.00
2022-08-11T16:56:34.086Z,35.37
2022-08-11T16:59:15.570Z,35.27
2022-08-11T17:01:46.066Z,34.55
2022-08-11T17:04:43.154Z,34.13
2022-08-11T17:07:42.314Z,34.02
2022-08-11T17:10:52.641Z,34.39
2022-08-11T17:13:27.944Z,34.16
2022-08-11T17:16:09.361Z,34.32
2022-08-11T17:18:51.387Z,34.22
2022-08-11T17:21:23.940Z,34.36
2022-08-11T18:37:53.415Z,29.88
2022-08-11T18:40:45.947Z,29.80
2022-08-11T18:43:33.955Z,29.78
2022-08-11T18:46:25.477Z,29.54
2022-08-11T18:49:16.789Z,29.36
2022-08-11T18:52:09.022Z,29.26
2022-08-11T18:54:58.561Z,29.05
2022-08-11T18:57:49.870Z,28.98
2022-08-11T19:00:41.541Z,28.94
2022-08-11T19:03:29.512Z,28.81
2022-08-11T19:06:38.289Z,28.67
2022-08-11T19:09:28.924Z,28.75
2022-08-11T19:12:15.653Z,28.58
2022-08-11T19:15:03.138Z,28.54
2022-08-11T19:17:50.579Z,28.45
2022-08-11T19:20:41.126Z,28.43
2022-08-11T19:23:29.730Z,28.39
2022-08-11T19:26:17.119Z,28.14
2022-08-11T19:29:06.131Z,28.10
2022-08-11T19:34:59.558Z,27.71
2022-08-11T19:37:46.416Z,27.76
2022-08-11T19:40:32.821Z,27.75
2022-08-11T19:44:01.149Z,27.46
2022-08-11T19:47:43.278Z,27.42
2022-08-11T19:50:28.785Z,27.42
2022-08-11T19:53:17.143Z,27.45
2022-08-11T19:56:04.975Z,27.38
2022-08-11T19:58:50.932Z,27.27
2022-08-11T20:01:35.869Z,27.15
2022-08-11T20:04:21.614Z,26.88
2022-08-11T20:07:07.667Z,26.73
2022-08-11T20:10:34.559Z,26.62
2022-08-11T20:13:21.469Z,26.65
2022-08-11T20:16:07.777Z,26.73
2022-08-11T20:18:54.479Z,26.46
2022-08-11T20:21:41.295Z,26.55
2022-08-11T20:24:27.583Z,26.70
2022-08-11T20:27:18.511Z,26.60
2022-08-11T20:30:09.852Z,26.46
2022-08-11T20:32:57.015Z,26.39
2022-08-11T20:35:42.916Z,26.29
2022-08-11T20:38:29.971Z,26.11
2022-08-11T20:41:16.286Z,26.09
2022-08-11T20:44:08.493Z,26.12
2022-08-11T20:46:57.275Z,26.16
2022-08-11T20:49:51.381Z,26.15
2022-08-11T20:52:47.430Z,25.98
2022-08-11T20:55:51.549Z,25.92
2022-08-11T20:59:13.355Z,25.89
2022-08-11T21:01:45.798Z,25.95
2022-08-11T21:04:32.365Z,25.95
2022-08-11T21:07:28.329Z,25.84
2022-08-11T21:10:24.034Z,25.87
2022-08-11T21:13:26.044Z,25.57
2022-08-11T21:16:25.251Z,25.16
2022-08-11T21:19:55.156Z,25.04
2022-08-11T21:22:28.096Z,25.00
2022-08-11T21:25:16.279Z,24.83
2022-08-11T21:28:03.555Z,24.89
2022-08-11T21:30:49.472Z,24.89
2022-08-11T21:33:35.432Z,24.85
2022-08-11T21:36:21.850Z,24.76
2022-08-11T21:39:09.324Z,24.73
2022-08-11T21:41:55.549Z,24.83
2022-08-11T21:44:41.425Z,24.86
2022-08-11T21:47:43.005Z,24.96
2022-08-11T21:50:29.447Z,24.89
2022-08-11T21:53:17.002Z,24.69
2022-08-11T21:56:03.124Z,24.48
2022-08-11T21:58:49.607Z,24.45
2022-08-11T22:01:36.095Z,24.48
2022-08-11T22:04:23.741Z,24.37
2022-08-11T22:07:10.050Z,24.44
2022-08-11T22:09:55.838Z,24.32
2022-08-11T22:12:44.711Z,24.30
2022-08-11T22:15:30.384Z,24.25
2022-08-11T22:18:15.750Z,24.14
2022-08-11T22:21:01.320Z,24.17
2022-08-11T22:23:47.542Z,23.94
2022-08-11T22:26:33.422Z,23.94
2022-08-11T22:29:18.439Z,24.04
2022-08-11T22:32:25.109Z,23.96
2022-08-11T22:35:11.564Z,23.94
2022-08-11T22:37:57.953Z,23.84
2022-08-11T22:40:42.824Z,23.73
2022-08-11T22:43:28.274Z,23.77
2022-08-11T22:46:13.050Z,23.76
2022-08-11T22:48:59.562Z,23.76
2022-08-11T22:51:46.405Z,23.80
2022-08-11T22:54:32.274Z,23.87
2022-08-11T22:57:18.230Z,23.69
2022-08-11T23:00:04.100Z,23.62
2022-08-11T23:02:49.421Z,23.58
2022-08-11T23:05:35.304Z,23.47
2022-08-11T23:08:21.123Z,23.42
2022-08-11T23:11:08.122Z,23.46
2022-08-11T23:13:53.741Z,23.39
2022-08-11T23:16:40.107Z,23.39
2022-08-11T23:20:06.653Z,23.45
2022-08-11T23:22:37.151Z,23.35
2022-08-11T23:25:35.153Z,23.35
2022-08-11T23:28:21.443Z,23.19
2022-08-11T23:31:09.490Z,23.15
2022-08-11T23:33:59.014Z,23.16
2022-08-11T23:36:47.217Z,23.14
2022-08-11T23:39:33.789Z,23.15
2022-08-11T23:42:19.073Z,23.15
2022-08-11T23:45:05.703Z,23.12
2022-08-11T23:47:56.755Z,23.08
2022-08-11T23:50:42.710Z,23.04
2022-08-11T23:53:28.582Z,23.12
2022-08-11T23:56:13.982Z,23.01
